Time;durP1;ratioP1;P1;durP2;ratioP2;P2;SDS_P1;SDS_P2;PMS_P1;PMS_P2;Temp;Humidity;BMP_temperature;BMP_pressure;BME280_temperature;BME280_humidity;BME280_pressure;Samples;Min_cycle;Max_cycle;Signal;HPM_P1;HPM_P2
2021/06/07 00:06:06;;;;;;;5.37;4.87;;;25.30;58.00;;;;;;4999983;28;20380;-78
2021/06/07 00:08:32;;;;;;;6.60;6.00;;;25.20;58.00;;;;;;4998929;28;20424;-78
2021/06/07 00:10:58;;;;;;;6.03;5.20;;;25.20;57.90;;;;;;4982224;28;20417;-78
2021/06/07 00:13:43;;;;;;;7.97;5.33;;;25.30;58.00;;;;;;4982346;28;20414;-78
2021/06/07 00:16:11;;;;;;;6.27;5.67;;;25.30;58.10;;;;;;4999299;28;20424;-78
2021/06/07 00:18:37;;;;;;;5.90;5.40;;;25.20;58.20;;;;;;4982135;28;20425;-78
2021/06/07 00:21:13;;;;;;;6.50;5.93;;;25.20;58.20;;;;;;4981913;28;20425;-78
2021/06/07 00:23:40;;;;;;;7.63;5.57;;;25.20;58.20;;;;;;4981786;28;20899;-78
2021/06/07 00:26:07;;;;;;;7.70;6.93;;;25.20;58.20;;;;;;4981637;28;20429;-79
2021/06/07 00:28:33;;;;;;;5.57;5.07;;;25.20;58.80;;;;;;4981079;28;20431;-79
2021/06/07 00:31:00;;;;;;;6.07;5.43;;;25.20;58.30;;;;;;4997117;28;20425;-78
2021/06/07 00:33:29;;;;;;;6.50;5.50;;;25.10;58.30;;;;;;4981079;28;20417;-78
2021/06/07 00:35:55;;;;;;;6.43;5.83;;;25.20;58.20;;;;;;4997719;28;20417;-78
2021/06/07 00:38:21;;;;;;;6.10;5.50;;;25.20;58.00;;;;;;4981758;28;20457;-78
2021/06/07 00:40:47;;;;;;;6.50;5.60;;;25.20;58.10;;;;;;4998902;28;20170;-78
2021/06/07 00:43:15;;;;;;;5.87;5.37;;;25.20;58.20;;;;;;4998690;28;20397;-77
2021/06/07 00:45:44;;;;;;;6.03;5.00;;;25.20;58.20;;;;;;4981737;28;20425;-78
2021/06/07 00:48:10;;;;;;;6.03;5.53;;;25.20;58.10;;;;;;4999214;28;20405;-78
2021/06/07 00:50:49;;;;;;;5.83;5.33;;;25.10;58.10;;;;;;4998220;28;20517;-77
2021/06/07 00:53:18;;;;;;;6.30;5.70;;;25.20;58.30;;;;;;4981952;28;20405;-78
2021/06/07 00:55:55;;;;;;;5.87;5.37;;;25.20;58.20;;;;;;4981773;28;20409;-78
2021/06/07 00:58:33;;;;;;;6.87;6.27;;;25.20;58.30;;;;;;4981824;28;20432;-78
2021/06/07 01:01:00;;;;;;;5.87;5.37;;;25.20;58.30;;;;;;4982242;28;20480;-77
2021/06/07 01:03:27;;;;;;;5.70;5.20;;;25.10;58.30;;;;;;4999294;28;20464;-78
2021/06/07 01:05:54;;;;;;;6.63;6.03;;;25.20;58.30;;;;;;4998035;28;20509;-78
2021/06/07 01:08:21;;;;;;;5.50;5.00;;;25.10;58.20;;;;;;4981521;28;20482;-78
2021/06/07 01:10:48;;;;;;;6.03;5.53;;;25.10;58.10;;;;;;4981782;28;20458;-78
2021/06/07 01:13:14;;;;;;;6.43;5.83;;;25.20;58.30;;;;;;4997672;28;20436;-78
2021/06/07 01:15:45;;;;;;;6.13;5.57;;;25.10;58.30;;;;;;4996505;28;20440;-78
2021/06/07 01:18:15;;;;;;;6.97;6.37;;;25.20;58.40;;;;;;4980670;28;20481;-78
2021/06/07 01:20:42;;;;;;;7.60;5.53;;;25.10;58.40;;;;;;4980363;28;20457;-78
2021/06/07 01:23:07;;;;;;;7.00;6.40;;;25.10;58.30;;;;;;4980676;28;20410;-78
2021/06/07 01:25:36;;;;;;;6.13;5.57;;;25.10;58.40;;;;;;4997382;28;20409;-78
2021/06/07 01:28:06;;;;;;;6.17;5.47;;;25.10;58.50;;;;;;4998149;28;20193;-78
2021/06/07 01:30:35;;;;;;;6.10;5.50;;;25.10;58.40;;;;;;4980939;28;20397;-78
2021/06/07 01:33:05;;;;;;;5.90;5.40;;;25.10;58.50;;;;;;4997729;28;20413;-79
2021/06/07 01:35:37;;;;;;;5.63;5.13;;;25.10;58.30;;;;;;4998208;28;20385;-78
2021/06/07 01:38:07;;;;;;;6.57;5.97;;;25.10;58.40;;;;;;4998078;28;20473;-78
2021/06/07 01:40:36;;;;;;;6.07;5.47;;;25.00;58.40;;;;;;4980986;28;20551;-79
2021/06/07 01:43:03;;;;;;;5.77;5.27;;;25.10;58.40;;;;;;5000441;28;20396;-78
2021/06/07 01:45:30;;;;;;;5.97;5.47;;;25.10;58.40;;;;;;4999961;28;20424;-79
2021/06/07 01:48:02;;;;;;;6.80;6.17;;;25.10;58.40;;;;;;5000079;28;20420;-78
2021/06/07 01:50:28;;;;;;;7.03;6.43;;;25.00;58.30;;;;;;5000260;28;20423;-78
2021/06/07 01:52:56;;;;;;;5.43;5.00;;;25.10;58.50;;;;;;5000447;28;20424;-78
2021/06/07 01:55:39;;;;;;;8.20;5.57;;;25.00;58.50;;;;;;5017508;28;20404;-79
2021/06/07 01:58:07;;;;;;;5.93;5.43;;;25.00;58.50;;;;;;5000598;28;20396;-79
2021/06/07 02:00:36;;;;;;;5.90;5.33;;;25.00;58.50;;;;;;5000310;28;20527;-79
2021/06/07 02:03:03;;;;;;;5.50;5.10;;;25.00;58.40;;;;;;4999501;28;20423;-78
2021/06/07 02:05:34;;;;;;;5.50;5.00;;;25.00;58.60;;;;;;5016697;28;20412;-78
2021/06/07 02:08:03;;;;;;;5.80;5.30;;;25.00;58.50;;;;;;5016031;28;20403;-79
2021/06/07 02:10:35;;;;;;;6.13;5.63;;;25.00;58.50;;;;;;4999043;28;20420;-78
2021/06/07 02:13:01;;;;;;;5.57;5.17;;;25.00;58.60;;;;;;4999318;28;20443;-78
2021/06/07 02:15:27;;;;;;;5.90;5.33;;;25.00;58.50;;;;;;5015904;28;20408;-77
2021/06/07 02:17:53;;;;;;;6.83;5.83;;;25.00;58.60;;;;;;5015620;28;20184;-78
2021/06/07 02:20:22;;;;;;;6.40;5.90;;;24.90;58.40;;;;;;4998964;28;20204;-77
2021/06/07 02:22:51;;;;;;;5.80;5.30;;;25.00;58.60;;;;;;4998627;28;20253;-78
2021/06/07 02:25:18;;;;;;;6.37;5.80;;;24.90;58.50;;;;;;4999374;28;20416;-78
2021/06/07 02:27:44;;;;;;;5.63;5.13;;;24.90;58.60;;;;;;4999116;28;20440;-78
2021/06/07 02:30:20;;;;;;;5.63;5.13;;;24.90;58.50;;;;;;5015873;28;20416;-78
2021/06/07 02:32:46;;;;;;;7.10;5.70;;;24.90;58.70;;;;;;5016117;28;20423;-78
2021/06/07 02:35:16;;;;;;;6.57;5.97;;;24.90;58.60;;;;;;5016024;28;20505;-78
2021/06/07 02:37:43;;;;;;;5.80;5.30;;;25.00;58.70;;;;;;5016001;28;20412;-77
2021/06/07 02:40:12;;;;;;;5.70;5.20;;;24.90;58.70;;;;;;4999015;28;20470;-77
2021/06/07 02:42:40;;;;;;;5.90;5.40;;;24.90;58.70;;;;;;4999006;28;20412;-78
2021/06/07 02:45:08;;;;;;;6.10;5.60;;;24.90;58.60;;;;;;4998497;28;20420;-77
2021/06/07 02:47:34;;;;;;;6.73;6.13;;;24.90;58.60;;;;;;5016239;28;20419;-78
2021/06/07 02:53:22;;;;;;;6.20;5.60;;;25.00;58.70;;;;;;5016709;28;20375;-79
2021/06/07 02:55:52;;;;;;;7.07;6.37;;;24.90;58.80;;;;;;5019555;28;20787;-79
2021/06/07 02:58:20;;;;;;;6.67;6.07;;;24.90;58.70;;;;;;5003003;28;20385;-79
2021/06/07 03:00:59;;;;;;;6.87;6.27;;;24.80;58.70;;;;;;5020018;28;20471;-78
2021/06/07 03:03:25;;;;;;;7.20;6.50;;;24.90;58.80;;;;;;5003289;28;20399;-79
2021/06/07 03:05:53;;;;;;;8.10;7.30;;;24.90;58.70;;;;;;5008479;28;20521;-79
2021/06/07 03:08:22;;;;;;;7.60;6.90;;;24.90;58.80;;;;;;5011315;28;20424;-78
2021/06/07 03:10:53;;;;;;;7.50;6.90;;;24.90;58.70;;;;;;5009370;28;20428;-79
2021/06/07 03:13:20;;;;;;;7.30;6.60;;;24.80;58.70;;;;;;5009078;28;20420;-80
2021/06/07 03:15:47;;;;;;;7.57;6.80;;;24.80;58.70;;;;;;5000483;28;20464;-78
2021/06/07 03:18:13;;;;;;;7.13;6.53;;;24.90;58.80;;;;;;5022226;28;20460;-78
2021/06/07 03:20:39;;;;;;;7.87;7.17;;;24.80;58.80;;;;;;5026059;28;20444;-78
2021/06/07 03:23:10;;;;;;;7.97;7.07;;;24.80;58.70;;;;;;5004918;28;20455;-78
2021/06/07 03:25:36;;;;;;;8.57;7.20;;;24.80;58.70;;;;;;5029662;28;20175;-79
2021/06/07 03:28:04;;;;;;;7.20;6.50;;;24.80;58.70;;;;;;5022382;28;20412;-78
2021/06/07 03:30:31;;;;;;;7.90;7.20;;;24.80;58.80;;;;;;5014841;28;20424;-78
2021/06/07 03:32:57;;;;;;;7.67;6.90;;;24.80;58.70;;;;;;5024598;28;20416;-78
2021/06/07 03:35:23;;;;;;;8.83;7.93;;;24.80;58.80;;;;;;5000988;28;20444;-78
2021/06/07 03:37:49;;;;;;;8.57;7.67;;;24.80;58.80;;;;;;5021945;28;20166;-79
2021/06/07 03:40:19;;;;;;;8.90;7.40;;;24.80;58.80;;;;;;5031757;28;20452;-78
2021/06/07 03:42:46;;;;;;;7.67;7.07;;;24.80;58.70;;;;;;5009294;28;20451;-78
2021/06/07 03:45:13;;;;;;;8.20;7.40;;;24.80;58.80;;;;;;5012437;28;20411;-78
2021/06/07 03:47:39;;;;;;;7.90;7.10;;;24.80;58.70;;;;;;5025967;28;20442;-77
2021/06/07 03:50:07;;;;;;;8.80;8.00;;;24.80;58.80;;;;;;5002039;28;20412;-78
2021/06/07 03:52:33;;;;;;;8.10;7.30;;;24.80;58.80;;;;;;5014570;28;20180;-78
2021/06/07 03:58:22;;;;;;;9.77;8.67;;;24.80;58.80;;;;;;5015699;28;20379;-78
2021/06/07 04:00:48;;;;;;;9.43;8.57;;;24.70;58.80;;;;;;5016803;28;20460;-79
2021/06/07 04:03:14;;;;;;;9.47;8.57;;;24.80;58.80;;;;;;5025731;28;20415;-78
2021/06/07 04:05:40;;;;;;;8.23;7.53;;;24.80;58.80;;;;;;5017734;28;20404;-78
2021/06/07 04:08:10;;;;;;;9.17;8.00;;;24.80;58.80;;;;;;5000602;28;20178;-78
2021/06/07 04:10:36;;;;;;;9.00;8.20;;;24.80;58.70;;;;;;5001302;28;20472;-78
2021/06/07 04:13:04;;;;;;;8.57;7.77;;;24.80;58.60;;;;;;5005140;28;20436;-78
2021/06/07 04:15:30;;;;;;;7.90;7.20;;;24.80;58.50;;;;;;4998193;28;20421;-78
2021/06/07 04:17:59;;;;;;;8.43;7.57;;;24.80;58.50;;;;;;5012311;28;20408;-84
2021/06/07 04:20:28;;;;;;;8.50;7.70;;;24.80;58.50;;;;;;5000242;28;20511;-78
2021/06/07 04:22:58;;;;;;;7.90;7.30;;;24.80;58.40;;;;;;5009192;28;20424;-77
2021/06/07 04:25:26;;;;;;;8.20;7.40;;;24.90;58.50;;;;;;5004616;28;20435;-77
2021/06/07 04:27:55;;;;;;;9.00;8.10;;;24.80;58.30;;;;;;5009010;28;20491;-76
2021/06/07 04:30:22;;;;;;;8.00;7.20;;;24.80;58.40;;;;;;5007491;28;20474;-77
2021/06/07 04:32:57;;;;;;;8.77;7.97;;;24.90;58.40;;;;;;5000686;28;20408;-77
2021/06/07 04:35:24;;;;;;;8.00;7.20;;;24.90;58.30;;;;;;4997995;28;20458;-77
2021/06/07 04:37:53;;;;;;;7.47;6.83;;;24.90;58.30;;;;;;5015003;28;20419;-77
2021/06/07 04:40:29;;;;;;;7.50;6.80;;;24.90;58.30;;;;;;5023833;28;20467;-78
2021/06/07 04:42:56;;;;;;;7.87;7.17;;;24.90;58.30;;;;;;5014983;28;20474;-79
2021/06/07 04:45:29;;;;;;;8.50;7.70;;;24.90;58.20;;;;;;5017170;28;20452;-78
2021/06/07 04:47:55;;;;;;;7.80;7.10;;;24.90;58.20;;;;;;5015314;28;20416;-80
2021/06/07 04:50:23;;;;;;;8.40;7.70;;;24.90;58.20;;;;;;5000567;28;20432;-78
2021/06/07 04:53:00;;;;;;;11.40;7.20;;;24.90;58.10;;;;;;5001251;28;20668;-77
2021/06/07 04:55:35;;;;;;;8.70;7.90;;;24.90;58.10;;;;;;4989274;28;20446;-79
2021/06/07 05:03:53;;;;;;;8.37;7.53;;;24.90;58.00;;;;;;5053065;28;20402;-77
2021/06/07 05:06:19;;;;;;;9.60;7.47;;;24.90;58.10;;;;;;5046466;28;20412;-79
2021/06/07 05:08:45;;;;;;;7.97;7.27;;;24.90;58.10;;;;;;5027425;28;20182;-78
2021/06/07 05:14:33;;;;;;;8.50;7.70;;;24.90;57.80;;;;;;5050468;28;20407;-77
2021/06/07 05:16:59;;;;;;;8.37;7.63;;;24.90;58.00;;;;;;5040270;28;20419;-78
2021/06/07 05:19:25;;;;;;;8.83;8.03;;;24.90;58.00;;;;;;5032167;28;20242;-78
2021/06/07 05:21:51;;;;;;;11.03;8.00;;;24.90;58.00;;;;;;5048186;28;20161;-78
2021/06/07 05:24:16;;;;;;;10.33;7.73;;;24.90;58.10;;;;;;5045555;28;20187;-78
2021/06/07 05:26:42;;;;;;;8.40;7.60;;;24.90;57.90;;;;;;5030352;28;20184;-77
2021/06/07 05:29:08;;;;;;;7.50;6.80;;;24.90;58.00;;;;;;5031573;28;20200;-78
2021/06/07 05:31:34;;;;;;;8.73;7.90;;;24.90;57.90;;;;;;5049418;28;20196;-79
2021/06/07 05:34:03;;;;;;;9.57;8.70;;;24.90;58.00;;;;;;5055558;28;20521;-79
2021/06/07 05:36:29;;;;;;;8.20;7.50;;;24.90;57.90;;;;;;5051788;28;20171;-78
2021/06/07 05:38:55;;;;;;;8.00;7.27;;;24.90;57.90;;;;;;5047834;28;20491;-79
2021/06/07 05:41:21;;;;;;;8.37;7.00;;;24.90;57.90;;;;;;5049847;28;20427;-79
2021/06/07 05:43:47;;;;;;;8.50;7.70;;;24.90;57.90;;;;;;5057582;28;20164;-78
2021/06/07 05:46:12;;;;;;;7.93;7.23;;;24.90;57.90;;;;;;5034078;28;20177;-78
2021/06/07 05:52:01;;;;;;;8.43;7.53;;;24.90;57.90;;;;;;5045989;28;20187;-77
2021/06/07 05:57:52;;;;;;;8.50;7.57;;;24.90;57.90;;;;;;5057770;28;20407;-77
2021/06/07 06:00:21;;;;;;;8.60;7.80;;;24.90;58.00;;;;;;5056764;28;20472;-77
2021/06/07 06:02:47;;;;;;;8.13;7.37;;;24.90;58.00;;;;;;5040122;28;20441;-77
2021/06/07 06:05:14;;;;;;;8.97;8.07;;;24.90;57.90;;;;;;5056987;28;20446;-80
2021/06/07 06:07:40;;;;;;;6.73;6.13;;;24.90;57.90;;;;;;5040464;28;20403;-78
2021/06/07 06:10:06;;;;;;;8.73;7.90;;;24.90;58.00;;;;;;5040497;28;20414;-77
2021/06/07 06:12:32;;;;;;;8.10;7.30;;;24.90;57.80;;;;;;5057969;28;20426;-78
2021/06/07 06:18:20;;;;;;;7.10;5.83;;;25.00;57.40;;;;;;5058234;28;20174;-78
2021/06/07 06:20:46;;;;;;;7.23;6.47;;;25.00;57.40;;;;;;5058359;28;20537;-78
2021/06/07 06:23:12;;;;;;;6.97;6.30;;;25.10;57.30;;;;;;5041000;28;20180;-78
2021/06/07 06:25:38;;;;;;;6.60;5.90;;;25.10;57.20;;;;;;5040245;28;20187;-78
2021/06/07 06:28:04;;;;;;;7.13;6.47;;;25.20;57.30;;;;;;5057420;28;20187;-78
2021/06/07 06:30:30;;;;;;;7.73;6.63;;;25.20;57.20;;;;;;5057369;28;20163;-78
2021/06/07 06:32:58;;;;;;;6.90;6.30;;;25.30;57.20;;;;;;5057808;28;20557;-78
2021/06/07 06:35:27;;;;;;;7.83;7.10;;;25.30;57.20;;;;;;5040851;28;20166;-78
2021/06/07 06:37:59;;;;;;;7.33;6.63;;;25.30;57.20;;;;;;5040807;28;20422;-77
2021/06/07 06:40:30;;;;;;;8.10;7.40;;;25.30;57.00;;;;;;5040972;28;20498;-78
2021/06/07 06:42:58;;;;;;;7.63;6.83;;;25.40;57.10;;;;;;5040170;28;20438;-78
2021/06/07 06:45:25;;;;;;;7.00;6.40;;;25.40;57.10;;;;;;5057408;28;20493;-77
2021/06/07 06:47:56;;;;;;;7.70;7.00;;;25.40;57.00;;;;;;5040640;28;20442;-78
2021/06/07 06:50:23;;;;;;;13.13;7.47;;;25.40;57.00;;;;;;5057273;28;20371;-77
2021/06/07 06:52:51;;;;;;;7.30;6.60;;;25.50;57.00;;;;;;5040469;28;20466;-79
2021/06/07 06:55:17;;;;;;;7.33;6.63;;;25.40;56.90;;;;;;5040127;28;20458;-78
2021/06/07 06:57:43;;;;;;;8.90;7.67;;;25.40;56.90;;;;;;5056405;28;20399;-78
2021/06/07 07:00:12;;;;;;;6.70;6.10;;;25.40;56.90;;;;;;5056637;28;20510;-78
2021/06/07 07:02:38;;;;;;;6.40;5.80;;;25.50;56.90;;;;;;5039894;28;20446;-78
2021/06/07 07:05:09;;;;;;;7.37;6.67;;;25.50;56.90;;;;;;5056276;28;20444;-77
2021/06/07 07:07:35;;;;;;;6.70;6.00;;;25.50;56.80;;;;;;5056543;28;20470;-78
2021/06/07 07:10:01;;;;;;;7.53;6.70;;;25.50;56.80;;;;;;5056965;28;20406;-77
2021/06/07 07:12:27;;;;;;;6.37;5.77;;;25.60;56.80;;;;;;5039336;28;20517;-78
2021/06/07 07:14:54;;;;;;;7.20;6.60;;;25.60;56.70;;;;;;5038827;28;20429;-78
2021/06/07 07:17:20;;;;;;;6.97;6.37;;;25.60;56.80;;;;;;5056156;28;20399;-78
2021/06/07 07:19:49;;;;;;;7.53;6.83;;;25.60;56.60;;;;;;5056536;28;20521;-78
2021/06/07 07:22:16;;;;;;;7.20;6.10;;;25.60;56.70;;;;;;5056112;28;20409;-78
2021/06/07 07:24:46;;;;;;;6.90;6.30;;;25.60;56.70;;;;;;5055648;28;20402;-78
2021/06/07 07:27:17;;;;;;;6.80;6.20;;;25.70;56.70;;;;;;5057088;28;20394;-77
2021/06/07 07:29:43;;;;;;;7.20;6.50;;;25.70;56.60;;;;;;5057112;28;20363;-78
2021/06/07 07:32:12;;;;;;;7.10;6.40;;;25.70;56.60;;;;;;5055828;28;20411;-78
2021/06/07 07:35:04;;;;;;;7.17;6.57;;;25.70;56.60;;;;;;5056793;28;20466;-78
2021/06/07 07:37:30;;;;;;;6.73;6.13;;;25.70;56.60;;;;;;5057225;28;20410;-81
2021/06/07 07:39:59;;;;;;;6.40;5.77;;;25.70;56.60;;;;;;5057039;28;20490;-79
2021/06/07 07:45:50;;;;;;;7.40;6.70;;;25.80;56.60;;;;;;5060874;28;20386;-78
2021/06/07 07:48:16;;;;;;;6.73;5.87;;;25.70;56.60;;;;;;5060541;28;20430;-79
2021/06/07 07:50:42;;;;;;;7.33;6.57;;;25.70;56.60;;;;;;5059983;28;20430;-78
2021/06/07 07:53:08;;;;;;;6.20;5.70;;;25.70;56.50;;;;;;5060157;28;20166;-79
2021/06/07 07:55:34;;;;;;;6.50;5.90;;;25.80;56.50;;;;;;5059979;28;20442;-79
2021/06/07 07:58:05;;;;;;;6.90;5.97;;;25.80;56.60;;;;;;5043491;28;20206;-79
2021/06/07 08:00:35;;;;;;;7.13;6.43;;;25.80;56.60;;;;;;5059754;28;20474;-78
2021/06/07 08:03:01;;;;;;;9.53;6.30;;;25.80;56.40;;;;;;5060435;28;20391;-79
2021/06/07 08:05:30;;;;;;;6.87;6.20;;;25.80;56.50;;;;;;5059278;28;20438;-78
2021/06/07 08:07:57;;;;;;;7.03;6.40;;;25.80;56.50;;;;;;5059208;28;20423;-79
2021/06/07 08:10:23;;;;;;;6.10;5.60;;;25.80;56.50;;;;;;5060288;28;20441;-79
2021/06/07 08:15:24;;;;;;;6.33;5.73;;;25.80;56.40;;;;;;5605042;23;20215;-79
2021/06/07 08:17:50;;;;;;;6.50;5.80;;;25.80;56.40;;;;;;5037055;28;20419;-80
2021/06/07 08:20:22;;;;;;;5.80;5.30;;;25.80;56.40;;;;;;5020168;28;20459;-80
2021/06/07 08:22:59;;;;;;;6.40;5.73;;;25.80;56.40;;;;;;5020330;28;20233;-80
2021/06/07 08:25:25;;;;;;;6.63;6.00;;;25.90;56.50;;;;;;5019374;28;20407;-80
2021/06/07 08:27:52;;;;;;;6.80;6.20;;;25.90;56.60;;;;;;5037433;28;20408;-79
2021/06/07 08:30:20;;;;;;;6.10;5.50;;;25.90;56.50;;;;;;5035286;28;20450;-80
2021/06/07 08:32:48;;;;;;;6.57;5.97;;;25.90;56.40;;;;;;5035108;28;20430;-82
2021/06/07 08:35:15;;;;;;;6.10;5.53;;;25.90;56.40;;;;;;5034786;28;20491;-79
2021/06/07 08:37:42;;;;;;;6.80;5.40;;;25.90;56.30;;;;;;5034897;28;20457;-79
2021/06/07 08:40:13;;;;;;;6.17;5.57;;;25.90;56.40;;;;;;5017722;28;20467;-81
2021/06/07 08:42:42;;;;;;;6.20;5.60;;;25.90;56.30;;;;;;5018789;28;20443;-81
2021/06/07 08:45:13;;;;;;;6.70;5.17;;;25.90;56.30;;;;;;5019714;28;20415;-80
2021/06/07 08:47:40;;;;;;;5.50;5.00;;;25.90;56.20;;;;;;5025450;28;20403;-81
2021/06/07 08:50:11;;;;;;;7.77;6.10;;;26.00;56.30;;;;;;5037062;28;20415;-81
2021/06/07 08:52:43;;;;;;;5.70;5.20;;;26.00;56.20;;;;;;5002727;28;20434;-81
2021/06/07 08:55:29;;;;;;;6.20;5.60;;;26.00;56.20;;;;;;5036636;28;20499;-81
2021/06/07 08:57:58;;;;;;;5.93;4.77;;;26.00;56.30;;;;;;5036996;28;20398;-80
2021/06/07 09:00:29;;;;;;;6.73;5.80;;;26.00;56.30;;;;;;5037518;28;20799;-80
2021/06/07 09:03:06;;;;;;;6.27;5.67;;;26.00;56.20;;;;;;5018023;28;20433;-79
2021/06/07 09:05:35;;;;;;;5.73;5.23;;;26.00;56.20;;;;;;5002914;28;20411;-79
2021/06/07 09:08:17;;;;;;;5.90;5.40;;;26.00;56.20;;;;;;5018805;28;20483;-80
2021/06/07 09:10:51;;;;;;;9.80;5.30;;;26.00;56.10;;;;;;5036272;28;20434;-80
2021/06/07 09:13:24;;;;;;;6.03;5.20;;;26.00;56.20;;;;;;5020126;28;20503;-80
2021/06/07 09:15:57;;;;;;;6.37;5.77;;;26.00;56.30;;;;;;5003178;28;20490;-79
2021/06/07 09:19:15;;;;;;;6.37;5.77;;;26.00;56.40;;;;;;4950707;29;20414;-80
2021/06/07 09:21:45;;;;;;;6.67;5.13;;;26.10;56.50;;;;;;4976107;29;20490;-80
2021/06/07 09:24:14;;;;;;;6.27;5.77;;;26.00;56.40;;;;;;4959597;29;20406;-80
2021/06/07 09:26:43;;;;;;;7.10;6.10;;;26.10;56.60;;;;;;4977431;29;20525;-80
2021/06/07 09:29:25;;;;;;;5.27;4.77;;;26.00;56.40;;;;;;4977355;29;20421;-80
2021/06/07 09:31:55;;;;;;;6.40;5.90;;;26.10;56.50;;;;;;4961010;29;20425;-81
2021/06/07 09:34:32;;;;;;;7.50;6.10;;;26.10;56.50;;;;;;4977257;29;20435;-79
2021/06/07 09:37:13;;;;;;;7.10;6.40;;;26.10;56.50;;;;;;4977955;29;20430;-81
2021/06/07 09:39:44;;;;;;;7.10;6.07;;;26.10;56.50;;;;;;4960793;29;20461;-80
2021/06/07 09:42:14;;;;;;;6.60;6.00;;;26.10;56.50;;;;;;4976447;29;20422;-81
2021/06/07 09:44:57;;;;;;;8.57;6.63;;;26.10;56.60;;;;;;4976464;29;20402;-80
2021/06/07 09:47:45;;;;;;;6.13;5.50;;;26.10;56.50;;;;;;4976251;29;20378;-80
2021/06/07 09:50:12;;;;;;;8.37;6.87;;;26.10;56.50;;;;;;4976025;29;20386;-81
2021/06/07 09:52:48;;;;;;;7.83;6.97;;;26.00;56.50;;;;;;4975905;29;20505;-80
2021/06/07 09:55:24;;;;;;;7.60;6.20;;;26.10;56.50;;;;;;4975973;29;20414;-80
2021/06/07 09:58:11;;;;;;;6.80;6.10;;;26.10;56.50;;;;;;4976071;29;20409;-80
2021/06/07 10:01:01;;;;;;;8.27;6.73;;;26.10;56.50;;;;;;4975984;29;20521;-80
2021/06/07 10:03:48;;;;;;;7.33;6.57;;;26.10;56.50;;;;;;4880926;29;20405;-80
2021/06/07 10:06:36;;;;;;;6.70;6.00;;;26.10;56.40;;;;;;4879997;29;20403;-80
2021/06/07 10:09:08;;;;;;;7.40;6.70;;;26.20;56.40;;;;;;4901450;29;20416;-80
2021/06/07 10:11:45;;;;;;;6.83;6.23;;;26.10;56.50;;;;;;4917433;29;20428;-80
2021/06/07 10:14:24;;;;;;;7.60;6.90;;;26.20;56.50;;;;;;4901504;29;20420;-80
2021/06/07 10:17:01;;;;;;;8.43;7.70;;;26.10;56.40;;;;;;4917813;29;20417;-80
2021/06/07 10:19:41;;;;;;;7.53;6.83;;;26.20;56.50;;;;;;4903504;29;20459;-80
2021/06/07 10:22:13;;;;;;;8.17;6.60;;;26.10;56.40;;;;;;4918082;29;20462;-80
2021/06/07 10:24:40;;;;;;;7.57;6.47;;;26.10;56.30;;;;;;4902007;29;20463;-80
2021/06/07 10:27:07;;;;;;;7.83;7.13;;;26.10;56.40;;;;;;4902484;29;20811;-80
2021/06/07 10:29:55;;;;;;;8.17;7.23;;;26.10;56.30;;;;;;4918294;29;20436;-80
2021/06/07 10:32:29;;;;;;;7.10;6.40;;;26.10;56.30;;;;;;4918002;29;20425;-81
2021/06/07 10:35:02;;;;;;;7.47;6.77;;;26.20;56.40;;;;;;4918764;29;20511;-80
2021/06/07 10:37:34;;;;;;;7.50;6.80;;;26.20;56.20;;;;;;4902408;29;20428;-81
2021/06/07 10:40:37;;;;;;;8.10;7.30;;;26.20;56.20;;;;;;4929073;28;20448;-80
2021/06/07 10:43:15;;;;;;;8.27;7.33;;;26.20;56.20;;;;;;4994370;28;20427;-80
2021/06/07 10:45:44;;;;;;;9.13;8.10;;;26.20;56.20;;;;;;4995553;28;20487;-80
2021/06/07 10:48:14;;;;;;;11.17;7.33;;;26.20;56.20;;;;;;5014422;28;20474;-79
2021/06/07 10:50:44;;;;;;;9.30;7.90;;;26.10;56.00;;;;;;5005435;28;20431;-80
2021/06/07 10:53:22;;;;;;;8.27;7.43;;;26.10;56.10;;;;;;5014033;28;20404;-80
2021/06/07 10:56:06;;;;;;;8.40;7.60;;;26.20;56.10;;;;;;4997592;28;20463;-81
2021/06/07 10:58:32;;;;;;;7.90;7.20;;;26.20;56.10;;;;;;5014850;28;20400;-79
2021/06/07 11:04:37;;;;;;;8.77;7.97;;;26.20;56.00;;;;;;5015223;28;20388;-79
2021/06/07 11:07:09;;;;;;;8.10;7.00;;;26.10;56.00;;;;;;5014470;28;20431;-81
2021/06/07 11:09:37;;;;;;;8.30;6.83;;;26.10;56.00;;;;;;4997728;28;20479;-80
2021/06/07 11:12:04;;;;;;;8.80;7.90;;;26.20;56.10;;;;;;5014258;28;20477;-80
2021/06/07 11:14:30;;;;;;;8.37;7.57;;;26.10;56.00;;;;;;5013787;28;20412;-81
2021/06/07 11:17:25;;;;;;;10.03;8.17;;;26.10;56.00;;;;;;5019277;28;20400;-80
2021/06/07 11:19:53;;;;;;;7.87;7.10;;;26.20;56.00;;;;;;5018623;28;20213;-80
2021/06/07 11:22:21;;;;;;;7.00;6.40;;;26.10;56.00;;;;;;5019867;28;20415;-80
2021/06/07 11:24:47;;;;;;;7.27;6.67;;;26.10;56.00;;;;;;5018009;28;20420;-80
2021/06/07 11:27:36;;;;;;;8.57;7.53;;;26.10;55.90;;;;;;5018713;28;20419;-80
2021/06/07 11:30:12;;;;;;;8.40;7.47;;;26.10;55.90;;;;;;5017781;28;20184;-80
2021/06/07 11:32:40;;;;;;;7.77;7.07;;;26.10;56.00;;;;;;5001083;28;20422;-80
2021/06/07 11:35:06;;;;;;;8.37;7.57;;;26.00;56.00;;;;;;5018585;28;20447;-80
2021/06/07 11:37:36;;;;;;;7.57;6.97;;;26.00;56.00;;;;;;5019089;28;20419;-80
2021/06/07 11:40:10;;;;;;;7.80;7.10;;;26.00;56.00;;;;;;5018839;28;20435;-80
2021/06/07 11:42:56;;;;;;;7.60;6.90;;;26.00;56.00;;;;;;5002051;28;20423;-80
2021/06/07 11:45:45;;;;;;;7.27;6.67;;;26.00;56.00;;;;;;4985372;28;20465;-80
2021/06/07 11:48:11;;;;;;;7.80;7.10;;;26.00;56.10;;;;;;5001343;28;20396;-80
2021/06/07 11:50:41;;;;;;;8.23;7.47;;;25.90;56.00;;;;;;5017261;28;20456;-80
2021/06/07 11:53:15;;;;;;;7.30;6.70;;;25.90;56.00;;;;;;5018623;28;20419;-80
2021/06/07 11:55:42;;;;;;;8.30;7.50;;;26.00;56.10;;;;;;5017771;28;20416;-81
2021/06/07 11:58:22;;;;;;;7.23;5.80;;;25.90;56.10;;;;;;5018043;28;20571;-80
2021/06/07 12:00:57;;;;;;;6.77;6.10;;;25.90;56.10;;;;;;5017936;28;20459;-80
2021/06/07 12:03:29;;;;;;;10.20;6.83;;;25.90;56.10;;;;;;5018562;28;20379;-80
2021/06/07 12:05:56;;;;;;;8.27;7.47;;;25.90;56.20;;;;;;5001170;28;20443;-80
2021/06/07 12:08:25;;;;;;;7.80;7.00;;;25.90;56.20;;;;;;5018468;28;20567;-80
2021/06/07 12:10:59;;;;;;;7.23;6.53;;;25.90;56.20;;;;;;5002616;28;20439;-81
2021/06/07 12:13:29;;;;;;;7.63;6.80;;;25.90;56.20;;;;;;5019182;28;20408;-80
2021/06/07 12:16:08;;;;;;;6.90;6.30;;;25.90;56.20;;;;;;5017884;28;20471;-80
2021/06/07 12:18:40;;;;;;;7.80;7.10;;;25.90;56.20;;;;;;5017137;28;20439;-80
2021/06/07 12:21:24;;;;;;;8.10;7.40;;;25.90;56.30;;;;;;5019376;28;20424;-80
2021/06/07 12:23:58;;;;;;;8.20;7.50;;;25.90;56.20;;;;;;5018131;28;20434;-87
2021/06/07 12:29:37;;;;;;;7.20;6.60;;;25.80;56.20;;;;;;5018129;28;20423;-81
2021/06/07 12:32:09;;;;;;;8.03;7.33;;;25.80;56.30;;;;;;5017703;28;20384;-80
2021/06/07 12:34:36;;;;;;;7.53;6.83;;;25.80;56.30;;;;;;5017181;28;20452;-80
2021/06/07 12:37:04;;;;;;;7.47;6.87;;;25.80;56.30;;;;;;5000278;28;20427;-80
2021/06/07 12:39:30;;;;;;;6.83;6.20;;;25.80;56.30;;;;;;5000614;28;20455;-81
2021/06/07 12:41:56;;;;;;;8.13;7.43;;;25.80;56.30;;;;;;5015832;28;20438;-80
2021/06/07 12:44:29;;;;;;;7.70;7.00;;;25.80;56.20;;;;;;5016839;28;20454;-80
2021/06/07 12:46:56;;;;;;;7.57;6.83;;;25.80;56.20;;;;;;5001158;28;20419;-81
2021/06/07 12:49:30;;;;;;;7.10;6.40;;;25.80;56.20;;;;;;5017697;28;20419;-81
2021/06/07 12:52:02;;;;;;;7.00;6.10;;;25.80;56.20;;;;;;5017060;28;20435;-81
2021/06/07 12:54:34;;;;;;;7.30;6.70;;;25.80;56.20;;;;;;5016240;28;20454;-80
2021/06/07 12:57:02;;;;;;;6.77;5.97;;;25.80;56.30;;;;;;5017531;28;20384;-80
2021/06/07 12:59:31;;;;;;;6.93;6.33;;;25.80;56.20;;;;;;5002797;28;20467;-80
2021/06/07 13:01:58;;;;;;;6.50;5.90;;;25.80;56.20;;;;;;5019809;28;20513;-80
2021/06/07 13:04:34;;;;;;;6.20;5.60;;;25.80;56.20;;;;;;5017199;28;20412;-80
2021/06/07 13:07:01;;;;;;;7.20;6.50;;;25.80;56.20;;;;;;4996793;28;20423;-79
2021/06/07 13:09:42;;;;;;;7.60;6.20;;;25.80;56.20;;;;;;4999270;28;20444;-80
2021/06/07 13:12:12;;;;;;;7.17;6.47;;;25.80;56.20;;;;;;4999991;28;20408;-80
2021/06/07 13:18:06;;;;;;;7.27;6.57;;;25.80;56.10;;;;;;5017045;28;20379;-80
2021/06/07 13:20:33;;;;;;;7.23;6.63;;;25.80;56.30;;;;;;4999638;28;20556;-80
2021/06/07 13:22:59;;;;;;;6.97;6.27;;;25.80;56.20;;;;;;5000334;28;20467;-79
2021/06/07 13:25:30;;;;;;;6.63;6.03;;;25.80;56.20;;;;;;5000307;28;20452;-80
2021/06/07 13:35:03;;;;;;;7.70;6.60;;;25.80;56.20;;;;;;5017322;28;20383;-80
2021/06/07 13:37:34;;;;;;;6.33;5.73;;;25.70;56.20;;;;;;5000051;28;20436;-80
2021/06/07 13:40:24;;;;;;;9.03;6.50;;;25.70;56.30;;;;;;5017053;28;20463;-80
2021/06/07 13:42:56;;;;;;;8.23;7.43;;;25.70;56.40;;;;;;5000056;28;20475;-80
2021/06/07 13:45:28;;;;;;;7.30;6.60;;;25.80;56.40;;;;;;5017394;28;20456;-80
2021/06/07 13:47:58;;;;;;;10.13;6.40;;;25.70;56.30;;;;;;5016818;28;20396;-79
2021/06/07 13:50:30;;;;;;;6.70;6.07;;;25.80;56.20;;;;;;4999233;28;20408;-79
2021/06/07 13:53:07;;;;;;;8.23;6.53;;;25.70;56.10;;;;;;4999925;28;20451;-80
2021/06/07 13:55:36;;;;;;;7.10;6.40;;;25.70;56.10;;;;;;5015757;28;20451;-80